sensor_id;sensor_type;location;lat;lon;timestamp;pressure;altitude;pressure_sealevel;temperature;humidity
59650;BME280;46162;57.568;25.814;2023-07-13T00:01:59;100145.50;;;9.40;100.00
59650;BME280;46162;57.568;25.814;2023-07-13T00:04:28;100149.72;;;9.42;100.00
59650;BME280;46162;57.568;25.814;2023-07-13T00:07:01;100141.34;;;9.54;100.00
59650;BME280;46162;57.568;25.814;2023-07-13T00:09:30;100145.22;;;9.51;100.00
59650;BME280;46162;57.568;25.814;2023-07-13T00:11:58;100136.06;;;9.44;100.00
59650;BME280;46162;57.568;25.814;2023-07-13T00:14:28;100134.53;;;9.41;100.00
59650;BME280;46162;57.568;25.814;2023-07-13T00:16:57;100130.91;;;9.51;100.00
59650;BME280;46162;57.568;25.814;2023-07-13T00:19:27;100135.78;;;9.47;100.00
59650;BME280;46162;57.568;25.814;2023-07-13T00:21:56;100129.88;;;9.52;100.00
59650;BME280;46162;57.568;25.814;2023-07-13T00:24:26;100129.88;;;9.52;100.00
59650;BME280;46162;57.568;25.814;2023-07-13T00:26:54;100137.56;;;9.38;100.00
59650;BME280;46162;57.568;25.814;2023-07-13T00:29:25;100132.31;;;9.37;100.00
59650;BME280;46162;57.568;25.814;2023-07-13T00:31:54;100121.38;;;9.38;100.00
59650;BME280;46162;57.568;25.814;2023-07-13T00:34:22;100119.94;;;9.26;100.00
59650;BME280;46162;57.568;25.814;2023-07-13T00:36:51;100128.19;;;9.24;100.00
59650;BME280;46162;57.568;25.814;2023-07-13T00:39:20;100118.56;;;9.22;100.00
59650;BME280;46162;57.568;25.814;2023-07-13T00:41:51;100117.03;;;9.19;100.00
59650;BME280;46162;57.568;25.814;2023-07-13T00:44:20;100122.03;;;9.14;100.00
59650;BME280;46162;57.568;25.814;2023-07-13T00:46:50;100109.81;;;9.02;100.00
59650;BME280;46162;57.568;25.814;2023-07-13T00:49:21;100111.22;;;9.06;100.00
59650;BME280;46162;57.568;25.814;2023-07-13T00:51:55;100107.22;;;9.10;100.00
59650;BME280;46162;57.568;25.814;2023-07-13T00:54:26;100115.13;;;9.12;100.00
59650;BME280;46162;57.568;25.814;2023-07-13T00:56:59;100116.50;;;9.16;100.00
59650;BME280;46162;57.568;25.814;2023-07-13T00:59:29;100113.97;;;9.14;100.00
59650;BME280;46162;57.568;25.814;2023-07-13T01:01:59;100110.75;;;9.11;100.00
59650;BME280;46162;57.568;25.814;2023-07-13T01:04:28;100106.06;;;8.95;100.00
59650;BME280;46162;57.568;25.814;2023-07-13T01:06:57;100101.47;;;8.87;100.00
59650;BME280;46162;57.568;25.814;2023-07-13T01:09:27;100092.03;;;8.83;100.00
59650;BME280;46162;57.568;25.814;2023-07-13T01:11:57;100095.56;;;8.83;100.00
59650;BME280;46162;57.568;25.814;2023-07-13T01:14:26;100100.03;;;8.93;100.00
59650;BME280;46162;57.568;25.814;2023-07-13T01:16:55;100104.34;;;9.12;100.00
59650;BME280;46162;57.568;25.814;2023-07-13T01:19:36;100095.38;;;9.29;100.00
59650;BME280;46162;57.568;25.814;2023-07-13T01:22:10;100094.81;;;9.17;100.00
59650;BME280;46162;57.568;25.814;2023-07-13T01:24:41;100092.69;;;9.03;100.00
59650;BME280;46162;57.568;25.814;2023-07-13T01:27:12;100090.22;;;8.92;100.00
59650;BME280;46162;57.568;25.814;2023-07-13T01:29:43;100092.59;;;8.95;100.00
59650;BME280;46162;57.568;25.814;2023-07-13T01:32:15;100084.00;;;8.91;100.00
59650;BME280;46162;57.568;25.814;2023-07-13T01:34:50;100084.56;;;8.77;100.00
59650;BME280;46162;57.568;25.814;2023-07-13T01:37:23;100083.84;;;8.75;100.00
59650;BME280;46162;57.568;25.814;2023-07-13T01:39:52;100081.16;;;8.75;100.00
59650;BME280;46162;57.568;25.814;2023-07-13T01:42:21;100083.41;;;8.79;100.00
59650;BME280;46162;57.568;25.814;2023-07-13T01:44:49;100084.47;;;8.87;100.00
59650;BME280;46162;57.568;25.814;2023-07-13T01:47:18;100080.31;;;8.74;100.00
59650;BME280;46162;57.568;25.814;2023-07-13T01:49:46;100075.94;;;8.55;100.00
59650;BME280;46162;57.568;25.814;2023-07-13T01:52:15;100076.25;;;8.70;100.00
59650;BME280;46162;57.568;25.814;2023-07-13T01:54:45;100072.69;;;8.88;100.00
59650;BME280;46162;57.568;25.814;2023-07-13T01:57:16;100070.34;;;9.11;100.00
59650;BME280;46162;57.568;25.814;2023-07-13T01:59:45;100075.56;;;9.12;100.00
59650;BME280;46162;57.568;25.814;2023-07-13T02:02:13;100066.75;;;9.02;100.00
59650;BME280;46162;57.568;25.814;2023-07-13T02:04:42;100073.28;;;8.99;100.00
59650;BME280;46162;57.568;25.814;2023-07-13T02:07:11;100066.06;;;9.00;100.00
59650;BME280;46162;57.568;25.814;2023-07-13T02:09:39;100063.59;;;9.07;100.00
59650;BME280;46162;57.568;25.814;2023-07-13T02:12:10;100065.66;;;9.13;100.00
59650;BME280;46162;57.568;25.814;2023-07-13T02:14:39;100053.41;;;9.18;100.00
59650;BME280;46162;57.568;25.814;2023-07-13T02:17:09;100060.19;;;9.22;100.00
59650;BME280;46162;57.568;25.814;2023-07-13T02:19:38;100056.63;;;9.22;100.00
59650;BME280;46162;57.568;25.814;2023-07-13T02:22:07;100049.44;;;9.31;100.00
59650;BME280;46162;57.568;25.814;2023-07-13T02:24:35;100045.91;;;9.30;100.00
59650;BME280;46162;57.568;25.814;2023-07-13T02:27:06;100056.03;;;9.36;100.00
59650;BME280;46162;57.568;25.814;2023-07-13T02:29:36;100047.47;;;9.41;100.00
59650;BME280;46162;57.568;25.814;2023-07-13T02:32:05;100045.13;;;9.38;100.00
59650;BME280;46162;57.568;25.814;2023-07-13T02:34:34;100037.72;;;9.40;100.00
59650;BME280;46162;57.568;25.814;2023-07-13T02:37:04;100045.84;;;9.48;100.00
59650;BME280;46162;57.568;25.814;2023-07-13T02:39:33;100037.59;;;9.50;100.00
59650;BME280;46162;57.568;25.814;2023-07-13T02:42:03;100033.41;;;9.55;100.00
59650;BME280;46162;57.568;25.814;2023-07-13T02:44:32;100040.00;;;9.61;100.00
59650;BME280;46162;57.568;25.814;2023-07-13T02:47:02;100041.03;;;9.68;100.00
59650;BME280;46162;57.568;25.814;2023-07-13T02:49:31;100042.09;;;9.75;100.00
59650;BME280;46162;57.568;25.814;2023-07-13T02:51:59;100033.41;;;9.98;100.00
59650;BME280;46162;57.568;25.814;2023-07-13T02:54:28;100033.94;;;10.18;100.00
59650;BME280;46162;57.568;25.814;2023-07-13T02:56:56;100031.44;;;10.24;100.00
59650;BME280;46162;57.568;25.814;2023-07-13T02:59:25;100029.97;;;10.30;100.00
59650;BME280;46162;57.568;25.814;2023-07-13T03:01:54;100027.44;;;10.53;100.00
59650;BME280;46162;57.568;25.814;2023-07-13T03:04:24;100025.78;;;10.60;100.00
59650;BME280;46162;57.568;25.814;2023-07-13T03:06:53;100016.19;;;10.66;100.00
59650;BME280;46162;57.568;25.814;2023-07-13T03:09:30;100023.91;;;10.61;100.00
59650;BME280;46162;57.568;25.814;2023-07-13T03:12:00;100023.06;;;10.60;100.00
59650;BME280;46162;57.568;25.814;2023-07-13T03:14:31;100026.59;;;10.61;100.00
59650;BME280;46162;57.568;25.814;2023-07-13T03:17:01;100015.63;;;10.70;100.00
59650;BME280;46162;57.568;25.814;2023-07-13T03:19:34;100020.03;;;10.71;100.00
59650;BME280;46162;57.568;25.814;2023-07-13T03:22:04;100014.47;;;10.89;100.00
59650;BME280;46162;57.568;25.814;2023-07-13T03:24:34;100015.28;;;11.06;100.00
59650;BME280;46162;57.568;25.814;2023-07-13T03:27:07;100011.91;;;11.04;100.00
59650;BME280;46162;57.568;25.814;2023-07-13T03:29:38;100022.53;;;11.14;100.00
59650;BME280;46162;57.568;25.814;2023-07-13T03:32:08;100016.78;;;11.25;100.00
59650;BME280;46162;57.568;25.814;2023-07-13T03:34:38;100021.84;;;11.28;100.00
59650;BME280;46162;57.568;25.814;2023-07-13T03:37:08;100022.16;;;11.33;100.00
59650;BME280;46162;57.568;25.814;2023-07-13T03:39:37;100013.00;;;11.43;100.00
59650;BME280;46162;57.568;25.814;2023-07-13T03:42:06;100008.03;;;11.54;100.00
59650;BME280;46162;57.568;25.814;2023-07-13T03:44:35;100012.25;;;11.65;100.00
59650;BME280;46162;57.568;25.814;2023-07-13T03:47:04;100011.69;;;11.78;100.00
59650;BME280;46162;57.568;25.814;2023-07-13T03:49:38;100008.75;;;11.96;100.00
59650;BME280;46162;57.568;25.814;2023-07-13T03:52:06;100015.44;;;12.31;100.00
59650;BME280;46162;57.568;25.814;2023-07-13T03:54:35;100015.81;;;12.51;100.00
59650;BME280;46162;57.568;25.814;2023-07-13T03:57:05;100014.97;;;12.74;100.00
59650;BME280;46162;57.568;25.814;2023-07-13T03:59:35;100011.47;;;12.65;100.00
59650;BME280;46162;57.568;25.814;2023-07-13T04:02:04;100010.28;;;12.67;100.00
59650;BME280;46162;57.568;25.814;2023-07-13T04:04:33;100014.97;;;12.74;100.00
59650;BME280;46162;57.568;25.814;2023-07-13T04:07:04;100016.66;;;12.75;100.00
59650;BME280;46162;57.568;25.814;2023-07-13T04:09:35;100016.16;;;12.94;100.00
59650;BME280;46162;57.568;25.814;2023-07-13T04:12:04;100015.53;;;13.22;100.00
59650;BME280;46162;57.568;25.814;2023-07-13T04:14:33;100018.84;;;13.32;100.00
59650;BME280;46162;57.568;25.814;2023-07-13T04:17:02;100022.09;;;13.42;100.00
59650;BME280;46162;57.568;25.814;2023-07-13T04:19:31;100023.53;;;13.38;100.00
59650;BME280;46162;57.568;25.814;2023-07-13T04:21:59;100013.34;;;13.55;100.00
59650;BME280;46162;57.568;25.814;2023-07-13T04:24:30;100031.66;;;13.53;100.00
59650;BME280;46162;57.568;25.814;2023-07-13T04:26:59;100025.09;;;13.62;100.00
59650;BME280;46162;57.568;25.814;2023-07-13T04:29:28;100021.63;;;13.83;100.00
59650;BME280;46162;57.568;25.814;2023-07-13T04:31:57;100029.59;;;13.85;100.00
59650;BME280;46162;57.568;25.814;2023-07-13T04:34:26;100028.91;;;13.97;100.00
59650;BME280;46162;57.568;25.814;2023-07-13T04:36:54;100021.34;;;14.29;100.00
59650;BME280;46162;57.568;25.814;2023-07-13T04:39:23;100023.09;;;14.37;100.00
59650;BME280;46162;57.568;25.814;2023-07-13T04:41:53;100024.84;;;14.45;100.00
59650;BME280;46162;57.568;25.814;2023-07-13T04:44:23;100033.97;;;14.58;100.00
59650;BME280;46162;57.568;25.814;2023-07-13T04:46:51;100029.44;;;14.66;100.00
59650;BME280;46162;57.568;25.814;2023-07-13T04:49:20;100039.09;;;14.90;100.00
59650;BME280;46162;57.568;25.814;2023-07-13T04:51:49;100043.63;;;14.82;100.00
59650;BME280;46162;57.568;25.814;2023-07-13T04:54:17;100036.84;;;14.72;100.00
59650;BME280;46162;57.568;25.814;2023-07-13T04:56:46;100038.25;;;15.17;100.00
59650;BME280;46162;57.568;25.814;2023-07-13T04:59:16;100037.97;;;15.40;100.00
59650;BME280;46162;57.568;25.814;2023-07-13T05:01:45;100037.50;;;15.65;100.00
59650;BME280;46162;57.568;25.814;2023-07-13T05:04:14;100038.47;;;15.79;100.00
59650;BME280;46162;57.568;25.814;2023-07-13T05:06:42;100030.34;;;15.85;100.00
59650;BME280;46162;57.568;25.814;2023-07-13T05:09:11;100037.63;;;15.85;100.00
59650;BME280;46162;57.568;25.814;2023-07-13T05:11:41;100035.03;;;16.11;100.00
59650;BME280;46162;57.568;25.814;2023-07-13T05:14:09;100030.69;;;16.24;100.00
59650;BME280;46162;57.568;25.814;2023-07-13T05:16:39;100046.03;;;16.51;100.00
59650;BME280;46162;57.568;25.814;2023-07-13T05:19:08;100045.41;;;16.56;100.00
59650;BME280;46162;57.568;25.814;2023-07-13T05:21:37;100044.59;;;16.55;100.00
59650;BME280;46162;57.568;25.814;2023-07-13T05:24:06;100039.53;;;16.46;100.00
59650;BME280;46162;57.568;25.814;2023-07-13T05:26:50;100040.81;;;16.50;100.00
59650;BME280;46162;57.568;25.814;2023-07-13T05:29:20;100037.03;;;16.51;100.00
59650;BME280;46162;57.568;25.814;2023-07-13T05:31:50;100037.25;;;16.49;100.00
59650;BME280;46162;57.568;25.814;2023-07-13T05:34:19;100040.63;;;16.65;100.00
59650;BME280;46162;57.568;25.814;2023-07-13T05:36:48;100032.88;;;16.68;100.00
59650;BME280;46162;57.568;25.814;2023-07-13T05:39:17;100031.00;;;16.75;100.00
59650;BME280;46162;57.568;25.814;2023-07-13T05:41:46;100031.88;;;16.89;100.00
59650;BME280;46162;57.568;25.814;2023-07-13T05:44:14;100034.19;;;17.19;100.00
59650;BME280;46162;57.568;25.814;2023-07-13T05:46:43;100028.53;;;17.14;100.00
59650;BME280;46162;57.568;25.814;2023-07-13T05:49:13;100025.56;;;17.29;100.00
59650;BME280;46162;57.568;25.814;2023-07-13T05:51:42;100021.97;;;17.35;100.00
59650;BME280;46162;57.568;25.814;2023-07-13T05:54:10;100014.31;;;17.77;100.00
59650;BME280;46162;57.568;25.814;2023-07-13T05:56:39;100010.41;;;18.18;100.00
59650;BME280;46162;57.568;25.814;2023-07-13T05:59:08;100018.31;;;18.33;100.00
59650;BME280;46162;57.568;25.814;2023-07-13T06:01:36;100020.16;;;18.32;100.00
59650;BME280;46162;57.568;25.814;2023-07-13T06:04:05;100023.16;;;18.31;100.00
59650;BME280;46162;57.568;25.814;2023-07-13T06:06:35;100027.97;;;18.35;100.00
59650;BME280;46162;57.568;25.814;2023-07-13T06:09:04;100034.00;;;18.44;100.00
59650;BME280;46162;57.568;25.814;2023-07-13T06:11:33;100038.00;;;18.41;100.00
59650;BME280;46162;57.568;25.814;2023-07-13T06:14:02;100038.84;;;18.42;100.00
59650;BME280;46162;57.568;25.814;2023-07-13T06:16:31;100040.97;;;18.40;100.00
59650;BME280;46162;57.568;25.814;2023-07-13T06:18:59;100042.81;;;18.46;100.00
59650;BME280;46162;57.568;25.814;2023-07-13T06:21:28;100043.44;;;18.48;100.00
59650;BME280;46162;57.568;25.814;2023-07-13T06:23:58;100040.69;;;18.48;100.00
59650;BME280;46162;57.568;25.814;2023-07-13T06:26:27;100036.28;;;18.47;100.00
59650;BME280;46162;57.568;25.814;2023-07-13T06:28:56;100031.22;;;18.51;100.00
59650;BME280;46162;57.568;25.814;2023-07-13T06:31:25;100027.00;;;18.55;100.00
59650;BME280;46162;57.568;25.814;2023-07-13T06:33:54;100025.72;;;18.57;100.00
59650;BME280;46162;57.568;25.814;2023-07-13T06:36:22;100017.72;;;18.56;100.00
59650;BME280;46162;57.568;25.814;2023-07-13T06:38:51;100014.31;;;18.67;100.00
59650;BME280;46162;57.568;25.814;2023-07-13T06:41:21;100019.69;;;18.74;100.00
59650;BME280;46162;57.568;25.814;2023-07-13T06:43:53;100006.03;;;18.74;100.00
59650;BME280;46162;57.568;25.814;2023-07-13T06:46:22;100008.53;;;18.82;100.00
59650;BME280;46162;57.568;25.814;2023-07-13T06:48:51;100007.47;;;18.83;100.00
59650;BME280;46162;57.568;25.814;2023-07-13T06:51:19;100017.75;;;18.87;100.00
59650;BME280;46162;57.568;25.814;2023-07-13T06:53:48;100019.06;;;19.03;100.00
59650;BME280;46162;57.568;25.814;2023-07-13T06:56:17;99999.97;;;19.22;100.00
59650;BME280;46162;57.568;25.814;2023-07-13T06:58:47;100008.66;;;19.37;100.00
59650;BME280;46162;57.568;25.814;2023-07-13T07:01:15;100002.59;;;19.53;100.00
59650;BME280;46162;57.568;25.814;2023-07-13T07:03:44;100002.09;;;19.82;100.00
59650;BME280;46162;57.568;25.814;2023-07-13T07:06:17;100000.03;;;19.95;100.00
59650;BME280;46162;57.568;25.814;2023-07-13T07:08:46;99998.34;;;20.25;100.00
59650;BME280;46162;57.568;25.814;2023-07-13T07:11:17;100009.16;;;20.38;100.00
59650;BME280;46162;57.568;25.814;2023-07-13T07:13:48;100006.97;;;20.28;100.00
59650;BME280;46162;57.568;25.814;2023-07-13T07:16:17;100009.75;;;20.40;100.00
59650;BME280;46162;57.568;25.814;2023-07-13T07:18:46;100013.97;;;20.54;100.00
59650;BME280;46162;57.568;25.814;2023-07-13T07:21:15;100017.25;;;20.45;100.00
59650;BME280;46162;57.568;25.814;2023-07-13T07:23:43;100018.13;;;20.45;100.00
59650;BME280;46162;57.568;25.814;2023-07-13T07:26:12;100024.31;;;20.52;100.00
59650;BME280;46162;57.568;25.814;2023-07-13T07:28:41;100029.38;;;20.55;100.00
59650;BME280;46162;57.568;25.814;2023-07-13T07:31:16;100028.38;;;20.50;100.00
59650;BME280;46162;57.568;25.814;2023-07-13T07:33:47;100032.00;;;20.62;100.00
59650;BME280;46162;57.568;25.814;2023-07-13T07:36:17;100029.66;;;20.66;100.00
59650;BME280;46162;57.568;25.814;2023-07-13T07:38:48;100031.56;;;20.65;100.00
59650;BME280;46162;57.568;25.814;2023-07-13T07:41:17;100042.28;;;20.67;100.00
59650;BME280;46162;57.568;25.814;2023-07-13T07:43:48;100032.31;;;20.84;100.00
59650;BME280;46162;57.568;25.814;2023-07-13T07:46:18;100033.13;;;20.73;100.00
59650;BME280;46162;57.568;25.814;2023-07-13T07:48:47;100034.44;;;20.70;100.00
59650;BME280;46162;57.568;25.814;2023-07-13T07:51:16;100032.00;;;20.62;100.00
59650;BME280;46162;57.568;25.814;2023-07-13T07:53:44;100036.16;;;20.53;100.00
59650;BME280;46162;57.568;25.814;2023-07-13T07:56:13;100031.22;;;20.73;100.00
59650;BME280;46162;57.568;25.814;2023-07-13T07:58:46;100038.59;;;20.61;100.00
59650;BME280;46162;57.568;25.814;2023-07-13T08:01:19;100039.22;;;20.75;100.00
59650;BME280;46162;57.568;25.814;2023-07-13T08:03:50;100045.16;;;20.60;100.00
59650;BME280;46162;57.568;25.814;2023-07-13T08:06:22;100048.16;;;20.52;100.00
59650;BME280;46162;57.568;25.814;2023-07-13T08:08:53;100052.34;;;20.54;100.00
59650;BME280;46162;57.568;25.814;2023-07-13T08:11:22;100060.78;;;20.71;100.00
59650;BME280;46162;57.568;25.814;2023-07-13T08:13:54;100058.53;;;20.68;100.00
59650;BME280;46162;57.568;25.814;2023-07-13T08:16:24;100063.13;;;20.37;100.00
59650;BME280;46162;57.568;25.814;2023-07-13T08:18:53;100053.44;;;20.23;100.00
59650;BME280;46162;57.568;25.814;2023-07-13T08:21:21;100065.91;;;20.19;100.00
59650;BME280;46162;57.568;25.814;2023-07-13T08:23:50;100069.59;;;20.13;100.00
59650;BME280;46162;57.568;25.814;2023-07-13T08:26:18;100071.28;;;19.95;100.00
59650;BME280;46162;57.568;25.814;2023-07-13T08:28:47;100070.72;;;19.68;100.00
59650;BME280;46162;57.568;25.814;2023-07-13T08:31:16;100081.66;;;19.43;100.00
59650;BME280;46162;57.568;25.814;2023-07-13T08:33:46;100089.38;;;19.28;100.00
59650;BME280;46162;57.568;25.814;2023-07-13T08:36:14;100089.09;;;19.11;100.00
59650;BME280;46162;57.568;25.814;2023-07-13T08:38:43;100094.63;;;19.04;100.00
59650;BME280;46162;57.568;25.814;2023-07-13T08:41:13;100094.38;;;19.06;100.00
59650;BME280;46162;57.568;25.814;2023-07-13T08:43:45;100096.09;;;19.07;100.00
59650;BME280;46162;57.568;25.814;2023-07-13T08:46:19;100106.44;;;18.98;100.00
59650;BME280;46162;57.568;25.814;2023-07-13T08:48:58;100096.91;;;19.07;100.00
59650;BME280;46162;57.568;25.814;2023-07-13T08:51:35;100103.34;;;19.20;100.00
59650;BME280;46162;57.568;25.814;2023-07-13T08:54:15;100099.78;;;19.44;100.00
59650;BME280;46162;57.568;25.814;2023-07-13T08:56:46;100105.28;;;19.63;100.00
59650;BME280;46162;57.568;25.814;2023-07-13T08:59:16;100104.94;;;19.52;100.00
59650;BME280;46162;57.568;25.814;2023-07-13T09:01:54;100111.50;;;19.51;100.00
59650;BME280;46162;57.568;25.814;2023-07-13T09:04:32;100112.88;;;19.61;100.00
59650;BME280;46162;57.568;25.814;2023-07-13T09:07:07;100116.56;;;19.73;100.00
59650;BME280;46162;57.568;25.814;2023-07-13T09:09:51;100111.03;;;19.80;100.00
59650;BME280;46162;57.568;25.814;2023-07-13T09:12:24;100111.72;;;19.75;100.00
59650;BME280;46162;57.568;25.814;2023-07-13T09:14:56;100122.50;;;19.70;100.00
59650;BME280;46162;57.568;25.814;2023-07-13T09:17:29;100114.25;;;19.76;100.00
59650;BME280;46162;57.568;25.814;2023-07-13T09:20:04;100122.41;;;19.83;100.00
59650;BME280;46162;57.568;25.814;2023-07-13T09:22:38;100116.53;;;19.80;100.00
59650;BME280;46162;57.568;25.814;2023-07-13T09:25:21;100126.25;;;19.75;100.00
59650;BME280;46162;57.568;25.814;2023-07-13T09:27:53;100118.22;;;19.81;100.00
59650;BME280;46162;57.568;25.814;2023-07-13T09:30:29;100130.09;;;19.68;100.00
59650;BME280;46162;57.568;25.814;2023-07-13T09:32:59;100135.69;;;19.80;100.00
59650;BME280;46162;57.568;25.814;2023-07-13T09:35:30;100132.44;;;20.08;100.00
59650;BME280;46162;57.568;25.814;2023-07-13T09:40:43;100126.91;;;20.33;100.00
59650;BME280;46162;57.568;25.814;2023-07-13T09:43:15;100132.06;;;20.41;100.00
59650;BME280;46162;57.568;25.814;2023-07-13T09:45:46;100128.56;;;20.34;100.00
59650;BME280;46162;57.568;25.814;2023-07-13T09:48:16;100125.66;;;20.29;100.00
59650;BME280;46162;57.568;25.814;2023-07-13T09:50:47;100121.94;;;20.23;100.00
59650;BME280;46162;57.568;25.814;2023-07-13T09:53:19;100123.25;;;20.21;100.00
59650;BME280;46162;57.568;25.814;2023-07-13T09:55:48;100131.69;;;20.19;100.00
59650;BME280;46162;57.568;25.814;2023-07-13T09:58:21;100129.50;;;20.28;100.00
59650;BME280;46162;57.568;25.814;2023-07-13T10:00:55;100132.56;;;20.50;100.00
59650;BME280;46162;57.568;25.814;2023-07-13T10:03:27;100131.09;;;20.35;100.00
59650;BME280;46162;57.568;25.814;2023-07-13T10:06:03;100135.56;;;20.11;100.00
59650;BME280;46162;57.568;25.814;2023-07-13T10:08:38;100128.78;;;20.14;100.00
59650;BME280;46162;57.568;25.814;2023-07-13T10:11:11;100139.59;;;20.09;100.00
59650;BME280;46162;57.568;25.814;2023-07-13T10:13:43;100133.03;;;20.10;100.00
59650;BME280;46162;57.568;25.814;2023-07-13T10:16:12;100135.28;;;20.01;100.00
59650;BME280;46162;57.568;25.814;2023-07-13T10:18:45;100130.78;;;19.88;100.00
59650;BME280;46162;57.568;25.814;2023-07-13T10:21:17;100149.00;;;19.76;100.00
59650;BME280;46162;57.568;25.814;2023-07-13T10:24:06;100139.03;;;19.57;100.00
59650;BME280;46162;57.568;25.814;2023-07-13T10:26:43;100134.78;;;19.61;100.00
59650;BME280;46162;57.568;25.814;2023-07-13T10:29:15;100138.13;;;19.69;100.00
59650;BME280;46162;57.568;25.814;2023-07-13T10:31:45;100136.41;;;19.93;100.00
59650;BME280;46162;57.568;25.814;2023-07-13T10:34:14;100138.47;;;20.16;100.00
59650;BME280;46162;57.568;25.814;2023-07-13T10:36:48;100136.56;;;20.35;100.00
59650;BME280;46162;57.568;25.814;2023-07-13T10:39:19;100131.13;;;20.66;100.00
59650;BME280;46162;57.568;25.814;2023-07-13T10:41:53;100129.38;;;20.71;100.00
59650;BME280;46162;57.568;25.814;2023-07-13T10:44:25;100139.69;;;20.57;100.00
59650;BME280;46162;57.568;25.814;2023-07-13T10:46:59;100133.81;;;20.35;100.00
59650;BME280;46162;57.568;25.814;2023-07-13T10:49:30;100130.06;;;20.30;100.00
59650;BME280;46162;57.568;25.814;2023-07-13T10:52:02;100123.75;;;20.29;100.00
59650;BME280;46162;57.568;25.814;2023-07-13T10:54:32;100126.56;;;20.23;100.00
59650;BME280;46162;57.568;25.814;2023-07-13T10:57:15;100134.50;;;20.12;100.00
59650;BME280;46162;57.568;25.814;2023-07-13T10:59:47;100126.66;;;20.16;100.00
59650;BME280;46162;57.568;25.814;2023-07-13T11:02:25;100130.03;;;20.18;100.00
59650;BME280;46162;57.568;25.814;2023-07-13T11:04:56;100124.06;;;20.21;100.00
59650;BME280;46162;57.568;25.814;2023-07-13T11:07:28;100118.88;;;20.31;100.00
59650;BME280;46162;57.568;25.814;2023-07-13T11:09:59;100124.31;;;20.38;100.00
59650;BME280;46162;57.568;25.814;2023-07-13T11:12:49;100111.72;;;20.49;100.00
59650;BME280;46162;57.568;25.814;2023-07-13T11:15:32;100120.06;;;20.54;100.00
59650;BME280;46162;57.568;25.814;2023-07-13T11:18:04;100119.72;;;20.50;100.00
59650;BME280;46162;57.568;25.814;2023-07-13T11:20:35;100132.84;;;20.78;100.00
59650;BME280;46162;57.568;25.814;2023-07-13T11:26:03;100129.75;;;21.59;100.00
59650;BME280;46162;57.568;25.814;2023-07-13T11:28:34;100138.91;;;21.53;100.00
59650;BME280;46162;57.568;25.814;2023-07-13T11:31:13;100132.59;;;21.76;100.00
59650;BME280;46162;57.568;25.814;2023-07-13T11:33:51;100135.59;;;21.86;100.00
59650;BME280;46162;57.568;25.814;2023-07-13T11:36:21;100129.38;;;21.79;100.00
59650;BME280;46162;57.568;25.814;2023-07-13T11:39:00;100141.09;;;21.86;100.00
59650;BME280;46162;57.568;25.814;2023-07-13T11:41:33;100136.75;;;21.78;100.00
59650;BME280;46162;57.568;25.814;2023-07-13T11:44:11;100137.13;;;21.58;100.00
59650;BME280;46162;57.568;25.814;2023-07-13T11:46:45;100139.34;;;21.38;100.00
59650;BME280;46162;57.568;25.814;2023-07-13T11:49:18;100147.97;;;20.99;100.00
59650;BME280;46162;57.568;25.814;2023-07-13T11:51:51;100148.56;;;20.71;100.00
59650;BME280;46162;57.568;25.814;2023-07-13T11:54:26;100155.13;;;20.70;100.00
59650;BME280;46162;57.568;25.814;2023-07-13T11:56:59;100158.66;;;20.59;100.00
59650;BME280;46162;57.568;25.814;2023-07-13T11:59:30;100162.13;;;20.66;100.00
59650;BME280;46162;57.568;25.814;2023-07-13T12:02:00;100160.84;;;20.99;100.00
59650;BME280;46162;57.568;25.814;2023-07-13T12:04:32;100157.81;;;20.89;100.00
59650;BME280;46162;57.568;25.814;2023-07-13T12:07:05;100171.47;;;20.77;100.00
59650;BME280;46162;57.568;25.814;2023-07-13T12:09:37;100168.56;;;20.60;100.00
59650;BME280;46162;57.568;25.814;2023-07-13T12:12:11;100165.22;;;20.58;100.00
59650;BME280;46162;57.568;25.814;2023-07-13T12:14:41;100174.41;;;20.45;100.00
59650;BME280;46162;57.568;25.814;2023-07-13T12:17:15;100175.78;;;20.36;100.00
59650;BME280;46162;57.568;25.814;2023-07-13T12:19:44;100168.69;;;20.47;100.00
59650;BME280;46162;57.568;25.814;2023-07-13T12:22:14;100170.69;;;20.58;100.00
59650;BME280;46162;57.568;25.814;2023-07-13T12:24:46;100163.97;;;21.02;100.00
59650;BME280;46162;57.568;25.814;2023-07-13T12:27:19;100170.25;;;21.33;100.00
59650;BME280;46162;57.568;25.814;2023-07-13T12:29:51;100171.03;;;21.10;100.00
59650;BME280;46162;57.568;25.814;2023-07-13T12:32:21;100179.31;;;20.92;100.00
59650;BME280;46162;57.568;25.814;2023-07-13T12:34:52;100170.53;;;20.53;100.00
59650;BME280;46162;57.568;25.814;2023-07-13T12:37:21;100178.34;;;20.49;100.00
59650;BME280;46162;57.568;25.814;2023-07-13T12:39:52;100181.63;;;20.39;100.00
59650;BME280;46162;57.568;25.814;2023-07-13T12:42:22;100186.06;;;20.40;100.00
59650;BME280;46162;57.568;25.814;2023-07-13T12:44:54;100185.22;;;20.40;100.00
59650;BME280;46162;57.568;25.814;2023-07-13T12:47:25;100188.19;;;20.38;100.00
59650;BME280;46162;57.568;25.814;2023-07-13T12:49:57;100176.69;;;20.30;100.00
59650;BME280;46162;57.568;25.814;2023-07-13T12:52:30;100179.97;;;20.38;100.00
59650;BME280;46162;57.568;25.814;2023-07-13T12:55:07;100170.13;;;20.49;100.00
59650;BME280;46162;57.568;25.814;2023-07-13T12:57:44;100184.63;;;20.75;100.00